AAR5Z RKSI-LKPR
Flight info
| Callsign | AAR5Z |
|---|---|
| Flight time | N/A |
| Altitude | 32000 |
| Route | NOPIK Y697 AGAVO/K0757S0660 A591 IKEKA W4 FZ/K0885S0980 W4 HCH W200 DOVIV W55 PAMRU W34 VYK B215 LEBOM W104 VEXEB W47 IDSOT W48 DKO W66 GOVSA/K0889S1040 W66 NUKTI B215 FKG A368 SARIN/K0865F340 N161 ALZIS/K0865F360 N161 TITIL N55 BALUN/N0467F360 N55 BAKUV N701 LUSAL M11 REBLO UM11 TEMEL/N0476F380 UM11 CRM UL746 GOKPA UM10 TIVUG UL852 NEGEM T746 ARGES DCT BUDOP DCT NORAH DCT PATAK DCT LALES DCT TUMKA DCT VLM RKSI/15L |
| Aircraft | B772/H-SDE1E2E3FGHIJ3J5M1P2RWXYZ/LB1D1 |
Departure
| Time | 2026-05-05 01:09 |
|---|---|
| Airport | Incheon International Airport (RKSI) |
Arrival
| Time | N/A |
|---|---|
| Airport | Václav Havel Airport Prague (LKPR) |
| Time | Latitude | Longitude | Altitude | Speed | Heading |
|---|---|---|---|---|---|
| 2026-05-05 00:46 | 37.47139 | 126.42258 | 36 ft | 0 kts | 234° |
| 2026-05-05 00:55 | 37.47139 | 126.42257 | 37 ft | 1 kts | 234° |
| 2026-05-05 00:55 | 37.47125 | 126.42232 | 36 ft | 6 kts | 234° |
| 2026-05-05 00:55 | 37.47104 | 126.42176 | 37 ft | 7 kts | 259° |
| 2026-05-05 00:55 | 37.47118 | 126.42119 | 36 ft | 7 kts | 314° |
| 2026-05-05 00:56 | 37.47158 | 126.42081 | 37 ft | 7 kts | 324° |
| 2026-05-05 00:56 | 37.47193 | 126.42049 | 37 ft | 0 kts | 324° |
| 2026-05-05 00:58 | 37.47198 | 126.42045 | 37 ft | 6 kts | 324° |
| 2026-05-05 00:58 | 37.47233 | 126.42013 | 35 ft | 6 kts | 324° |
| 2026-05-05 00:58 | 37.47268 | 126.41981 | 37 ft | 6 kts | 324° |
| 2026-05-05 00:59 | 37.47301 | 126.41952 | 37 ft | 5 kts | 324° |
| 2026-05-05 00:59 | 37.47313 | 126.41941 | 37 ft | 2 kts | 324° |
| 2026-05-05 00:59 | 37.47318 | 126.41937 | 35 ft | 0 kts | 324° |
| 2026-05-05 01:00 | 37.47326 | 126.41929 | 37 ft | 4 kts | 324° |
| 2026-05-05 01:01 | 37.47350 | 126.41907 | 37 ft | 4 kts | 324° |
| 2026-05-05 01:01 | 37.47379 | 126.41881 | 37 ft | 9 kts | 324° |
| 2026-05-05 01:01 | 37.47395 | 126.41804 | 37 ft | 10 kts | 251° |
| 2026-05-05 01:01 | 37.47370 | 126.41756 | 37 ft | 3 kts | 234° |
| 2026-05-05 01:02 | 37.47357 | 126.41731 | 37 ft | 3 kts | 234° |
| 2026-05-05 01:02 | 37.47343 | 126.41706 | 37 ft | 3 kts | 234° |
| 2026-05-05 01:02 | 37.47331 | 126.41685 | 37 ft | 2 kts | 234° |
| 2026-05-05 01:02 | 37.47324 | 126.41673 | 37 ft | 2 kts | 234° |
| 2026-05-05 01:03 | 37.47317 | 126.41662 | 37 ft | 2 kts | 234° |
| 2026-05-05 01:03 | 37.47302 | 126.41634 | 37 ft | 8 kts | 234° |
| 2026-05-05 01:03 | 37.47285 | 126.41609 | 37 ft | 0 kts | 226° |
| 2026-05-05 01:08 | 37.47284 | 126.41608 | 37 ft | 3 kts | 224° |
| 2026-05-05 01:08 | 37.47230 | 126.41605 | 37 ft | 12 kts | 157° |
| 2026-05-05 01:08 | 37.47131 | 126.41687 | 37 ft | 34 kts | 144° |
| 2026-05-05 01:09 | 37.46705 | 126.42065 | 37 ft | 114 kts | 144° |
| 2026-05-05 01:09 | 37.45871 | 126.42809 | 53 ft | 177 kts | 146° |
| 2026-05-05 01:09 | 37.44794 | 126.43788 | 588 ft | 198 kts | 144° |
| 2026-05-05 01:09 | 37.43673 | 126.44841 | 1494 ft | 204 kts | 146° |
| 2026-05-05 01:10 | 37.42527 | 126.45940 | 2378 ft | 212 kts | 146° |
| 2026-05-05 01:10 | 37.41285 | 126.47005 | 3163 ft | 215 kts | 158° |
| 2026-05-05 01:10 | 37.39865 | 126.47499 | 3948 ft | 220 kts | 176° |
| 2026-05-05 01:10 | 37.38253 | 126.47458 | 4424 ft | 239 kts | 192° |
| 2026-05-05 01:11 | 37.36674 | 126.46814 | 5460 ft | 238 kts | 208° |
| 2026-05-05 01:11 | 37.35308 | 126.45574 | 6198 ft | 247 kts | 227° |
| 2026-05-05 01:11 | 37.34298 | 126.43753 | 6815 ft | 261 kts | 245° |
| 2026-05-05 01:11 | 37.33823 | 126.41591 | 7863 ft | 255 kts | 263° |
| 2026-05-05 01:12 | 37.33798 | 126.39305 | 8509 ft | 269 kts | 273° |
| 2026-05-05 01:12 | 37.33996 | 126.36949 | 8961 ft | 273 kts | 275° |
| 2026-05-05 01:12 | 37.34195 | 126.34600 | 9441 ft | 273 kts | 275° |
| 2026-05-05 01:12 | 37.34417 | 126.32195 | 9830 ft | 282 kts | 275° |
| 2026-05-05 01:13 | 37.34647 | 126.29722 | 10012 ft | 286 kts | 275° |
| 2026-05-05 01:13 | 37.34794 | 126.27248 | 10003 ft | 283 kts | 272° |
| 2026-05-05 01:13 | 37.34887 | 126.24757 | 10011 ft | 284 kts | 271° |
| 2026-05-05 01:13 | 37.34975 | 126.22271 | 10012 ft | 285 kts | 271° |
| 2026-05-05 01:14 | 37.35061 | 126.19790 | 10014 ft | 285 kts | 271° |
| 2026-05-05 01:14 | 37.35147 | 126.17289 | 10029 ft | 288 kts | 271° |
| 2026-05-05 01:14 | 37.35234 | 126.14696 | 10169 ft | 306 kts | 271° |
| 2026-05-05 01:14 | 37.35322 | 126.11937 | 10308 ft | 326 kts | 271° |
| 2026-05-05 01:15 | 37.35415 | 126.08997 | 10457 ft | 346 kts | 271° |
| 2026-05-05 01:15 | 37.35511 | 126.05909 | 10789 ft | 360 kts | 271° |
| 2026-05-05 01:15 | 37.35611 | 126.02730 | 11266 ft | 370 kts | 271° |
| 2026-05-05 01:15 | 37.35712 | 125.99534 | 11880 ft | 375 kts | 271° |
| 2026-05-05 01:16 | 37.35782 | 125.97319 | 12339 ft | 378 kts | 271° |
| 2026-05-05 01:16 | 37.35919 | 125.92901 | 13184 ft | 384 kts | 271° |